Piona logo

Wyniki

Jarosławska Piona
#72
Mikołajkowa Piona

Dystans:5 km
Data:2015-12-05 (sobota)
Godzina:09:00
Miejscowość:Jarosław
Lokalizacja:Park miejski im. Bohaterów Monte Cassino - Zobacz trasę
Adres:Al. Szczepańskiego
Współrzędne GPS:50.0229, 22.6703 - Sprawdż na Google Maps
Wpisowe:brak
Liczba uczestników:32
Status:Zawody zakończone

OpenNumerKrajImięNazwiskoPłećR. ur.KMKategoria# KatMiejscowośćRezultat
[hh:mm:ss]
Tempo
[min/km]
1P168POLPolandMaciej TOMASZEWSKIM19971M18-191Widna Góra/Pawłosiów00:17:3503:31
2P304POLPolandMichałNASPIŃSKIM19962M18-192Wiązownica00:19:4303:57
3P122POLPolandJacekMAŚLANKAM19753M40-491Jarosław00:20:5704:11
4P125POLPolandAndrzejGWÓŹDŹM19684M40-492Jarosław00:21:1204:14
5P119POLPolandRobertKOZDROWICKIM19665M40-493Jarosław00:21:1904:16
6P285POLPolandZbigniewNOWAKM19686M40-494Jarosław00:21:4804:22
7P228POLPolandDawidKOPEĆM19987M16-171Radymno00:22:1604:27
8P230POLPolandJaromirPAJDAM19728M40-495Jarosław00:22:3504:31
9P286POLPolandBartłomiejSKRZYNIARZM19889M20-291Jarosław00:22:3904:32
10P329POLPolandMarcinSTEMPAKM198310M30-391Szówsko00:23:0704:37
11P466POLPolandMichałPIETRASZEKM199111M20-292Jarosław00:23:1204:38
12P417POLPolandAdamTOMASZEWSKIM198712M20-293Pawłosiów00:23:2304:41
13P426POLPolandAnnaPIGANK19791K30-391Szówsko00:24:0904:50
14P257POLPolandEwaSZYMAŃSKAK19642K50-591Jarosław00:24:1004:50
15P194POLPolandMartaORONOWICZK19693K40-491Munina00:24:1004:50
16P205POLPolandWaldemarPLEBANKIEWICZM196413M50-591Jarosław00:24:1104:50
17P244POLPolandMarekSTECM197614M30-392Jaroslaw00:24:2104:52
18P254POLPolandKrzysztof CZWAKIEL M199115M20-294Wólka Pełkińska 00:24:2304:53
19P472POLPolandAdrianKAJDZIKM199316M20-295Jarosław00:25:1605:03
20P439POLPolandMartaJOPK19794K30-392Jarosław00:25:3505:07
21P441POLPolandBernadettaWASYLISZYNK19865K20-291Jarosław00:25:3705:07
22P272POLPolandTomaszLEGENYM197317M40-496Jarosław00:26:3005:18
23P274POLPolandEwaJACKOWSKAK19746K40-492Jarosław00:26:3105:18
24P239POLPolandPrzemysławPASZKOM197718M30-393Jarosław00:26:3105:18
25P275POLPolandJacekJACKOWSKIM197219M40-497Jarosław00:26:3405:19
26P477POLPolandJolantaBĄKK19867K20-292Żołynia00:26:3405:19
27P359POLPolandDorotaGEMBAROWSKAK19898K20-293Laszki00:27:1805:28
28P476POLPolandAldonaBOCEK-TELKAK19639K50-592Grodzisko Dolne00:27:4205:32
29P475POLPolandMałgorzataPIELAK196210K50-593Grodzisko Dolne00:27:5505:35
30P262POLPolandEwelinaGAŁKAK198911K20-294Jarosław00:29:1905:52
31P473POLPolandElenaKOGUTK198112K30-393Jarosław00:29:2105:52
32P261POLPolandGrzegorz WALCZAKM198320M30-394Jarosław00:29:2205:52

Jeśli widzisz błąd w wynikach prosimy o kontakt.

© 2014 Piona
Przemyśl Jarosławska Grupa Biegowa SOKÓŁ
Piona ikona